createdAt,value
2022-08-22T00:03:00.573Z,31.40
2022-08-22T00:03:12.017Z,43.84
2022-08-22T00:06:25.915Z,40.16
2022-08-22T00:09:32.646Z,42.43
2022-08-22T00:12:39.688Z,40.95
2022-08-22T00:18:50.397Z,40.37
2022-08-22T00:21:57.744Z,39.59
2022-08-22T00:25:25.962Z,43.55
2022-08-22T00:28:32.579Z,41.38
2022-08-22T00:31:37.863Z,39.36
2022-08-22T00:34:44.592Z,39.79
2022-08-22T00:37:54.376Z,39.02
2022-08-22T00:41:01.170Z,39.10
2022-08-22T00:44:16.135Z,40.22
2022-08-22T00:47:27.858Z,39.20
2022-08-22T00:50:56.886Z,40.47
2022-08-22T00:54:09.648Z,40.23
2022-08-22T00:57:35.287Z,40.88
2022-08-22T01:00:43.856Z,39.18
2022-08-22T01:04:07.022Z,37.49
2022-08-22T01:07:18.684Z,40.21
2022-08-22T01:10:32.167Z,39.93
2022-08-22T01:13:44.358Z,40.95
2022-08-22T01:17:07.862Z,41.27
2022-08-22T01:20:29.104Z,40.25
2022-08-22T01:23:46.706Z,41.38
2022-08-22T01:27:22.447Z,39.64
2022-08-22T01:30:47.165Z,41.42
2022-08-22T01:34:12.939Z,42.25
2022-08-22T01:37:48.902Z,40.51
2022-08-22T01:41:14.690Z,40.91
2022-08-22T01:44:25.493Z,39.59
2022-08-22T01:47:36.730Z,42.14
2022-08-22T01:50:45.291Z,41.43
2022-08-22T01:53:52.930Z,40.24
2022-08-22T01:57:01.847Z,42.18
2022-08-22T02:00:16.563Z,39.33
2022-08-22T02:03:22.781Z,42.08
2022-08-22T02:06:37.747Z,40.53
2022-08-22T02:09:45.477Z,40.94
2022-08-22T02:12:58.789Z,42.30
2022-08-22T02:16:06.574Z,43.62
2022-08-22T02:19:21.692Z,44.84
2022-08-22T02:22:32.531Z,43.26
2022-08-22T02:25:36.520Z,42.45
2022-08-22T02:28:56.560Z,44.81
2022-08-22T02:32:04.203Z,42.20
2022-08-22T02:35:09.926Z,42.29
2022-08-22T02:38:22.499Z,41.72
2022-08-22T02:41:27.697Z,43.75
2022-08-22T02:44:36.265Z,42.78
2022-08-22T02:47:42.619Z,43.57
2022-08-22T02:50:48.795Z,43.51
2022-08-22T02:53:55.547Z,44.72
2022-08-22T02:57:02.364Z,42.28
2022-08-22T03:00:29.706Z,44.47
2022-08-22T03:03:39.035Z,44.28
2022-08-22T03:06:44.854Z,43.56
2022-08-22T03:09:52.833Z,42.88
2022-08-22T03:13:01.273Z,43.54
2022-08-22T03:16:07.819Z,43.22
2022-08-22T03:19:18.808Z,43.80
2022-08-22T03:22:26.754Z,43.68
2022-08-22T03:25:36.945Z,45.71
2022-08-22T03:28:59.330Z,42.94
2022-08-22T03:32:20.746Z,45.78
2022-08-22T03:35:25.996Z,42.39
2022-08-22T03:38:30.709Z,45.40
2022-08-22T03:41:49.595Z,44.86
2022-08-22T03:45:08.555Z,44.00
2022-08-22T03:48:21.500Z,43.97
2022-08-22T03:51:31.498Z,44.67
2022-08-22T03:54:51.752Z,45.44
2022-08-22T03:58:06.428Z,44.84
2022-08-22T04:01:29.664Z,44.59
2022-08-22T04:04:51.086Z,44.98
2022-08-22T04:08:06.540Z,44.22
2022-08-22T04:11:28.907Z,44.72
2022-08-22T04:14:59.717Z,45.12
2022-08-22T04:18:09.112Z,43.93
2022-08-22T04:21:35.770Z,45.23
2022-08-22T04:24:45.111Z,43.87
2022-08-22T04:27:59.095Z,43.65
2022-08-22T04:31:06.050Z,42.84
2022-08-22T04:34:16.478Z,42.87
2022-08-22T04:37:22.355Z,43.20
2022-08-22T04:40:28.770Z,43.09
2022-08-22T04:43:35.733Z,42.74
2022-08-22T04:46:40.553Z,42.24
2022-08-22T04:49:49.067Z,42.46
2022-08-22T04:53:03.352Z,41.81
2022-08-22T04:56:08.764Z,42.08
2022-08-22T04:59:12.870Z,41.83
2022-08-22T05:02:22.884Z,41.11
2022-08-22T05:05:30.056Z,42.40
2022-08-22T05:08:34.192Z,40.26
2022-08-22T05:11:38.198Z,41.45
2022-08-22T05:14:42.419Z,41.57
2022-08-22T05:17:46.846Z,41.03
2022-08-22T05:20:52.173Z,41.98
2022-08-22T05:23:56.557Z,40.08
2022-08-22T05:27:01.645Z,40.85
2022-08-22T05:30:08.193Z,40.75
2022-08-22T05:33:15.772Z,39.69
2022-08-22T05:36:22.719Z,40.21
2022-08-22T05:39:27.976Z,39.11
2022-08-22T05:42:32.743Z,39.82
2022-08-22T05:45:36.523Z,39.90
2022-08-22T05:48:42.231Z,39.72
2022-08-22T05:51:51.495Z,38.75
2022-08-22T05:54:57.252Z,38.34
2022-08-22T05:58:11.634Z,38.69
2022-08-22T06:01:21.471Z,36.89
2022-08-22T06:04:27.604Z,37.69
2022-08-22T06:07:35.393Z,37.26
2022-08-22T06:10:41.594Z,38.13
2022-08-22T06:13:48.856Z,37.82
2022-08-22T06:16:59.790Z,36.50
2022-08-22T06:20:03.511Z,37.64
2022-08-22T06:23:09.162Z,37.23
2022-08-22T06:26:21.206Z,37.78
2022-08-22T06:29:31.300Z,38.10
2022-08-22T06:32:47.061Z,36.81
2022-08-22T06:36:18.401Z,36.44
2022-08-22T06:39:25.960Z,36.93
2022-08-22T06:42:31.190Z,37.59
2022-08-22T06:45:34.111Z,37.71
2022-08-22T06:48:37.735Z,37.05
2022-08-22T06:51:41.180Z,36.04
2022-08-22T06:54:47.508Z,36.62
2022-08-22T06:57:54.551Z,35.81
2022-08-22T07:01:11.280Z,35.66
2022-08-22T07:04:15.927Z,35.34
2022-08-22T07:07:22.135Z,34.90
2022-08-22T07:10:27.248Z,35.06
2022-08-22T07:13:31.468Z,35.79
2022-08-22T07:16:35.367Z,35.53
2022-08-22T07:19:39.680Z,34.97
2022-08-22T07:22:54.081Z,35.18
2022-08-22T07:26:04.480Z,35.07
2022-08-22T07:29:11.383Z,34.71
2022-08-22T07:32:17.620Z,35.09
2022-08-22T07:35:22.580Z,35.40
2022-08-22T07:38:32.606Z,35.52
2022-08-22T07:41:43.668Z,35.64
2022-08-22T07:44:54.157Z,34.08
2022-08-22T07:48:02.985Z,34.70
2022-08-22T07:51:08.285Z,34.94
2022-08-22T07:54:12.791Z,34.73
2022-08-22T07:57:28.275Z,34.41
2022-08-22T08:00:32.535Z,34.35
2022-08-22T08:03:35.492Z,31.99
2022-08-22T08:06:38.498Z,32.72
2022-08-22T08:09:44.538Z,31.86
2022-08-22T08:13:01.833Z,32.15
2022-08-22T08:16:07.689Z,31.94
2022-08-22T08:19:12.690Z,30.99
2022-08-22T08:22:17.355Z,31.37
2022-08-22T08:25:21.367Z,30.53
2022-08-22T08:28:38.189Z,31.88
2022-08-22T08:31:44.933Z,31.05
2022-08-22T08:34:48.186Z,30.97
2022-08-22T08:37:54.290Z,30.20
2022-08-22T08:41:06.580Z,30.08
2022-08-22T08:44:19.409Z,29.66
2022-08-22T08:47:29.234Z,29.32
2022-08-22T08:50:39.147Z,28.88
2022-08-22T08:53:59.120Z,29.29
2022-08-22T08:57:13.520Z,29.37
2022-08-22T09:00:22.204Z,28.87
2022-08-22T09:03:48.595Z,28.46
2022-08-22T09:07:02.864Z,26.11
2022-08-22T09:10:18.913Z,24.72
2022-08-22T09:17:13.854Z,23.63
2022-08-22T09:20:32.616Z,21.77
2022-08-22T09:24:02.639Z,21.15
2022-08-22T09:27:13.191Z,20.81
2022-08-22T09:30:18.178Z,20.34
2022-08-22T09:33:36.361Z,19.76
2022-08-22T09:36:48.144Z,20.08
2022-08-22T09:39:57.264Z,19.24
2022-08-22T09:43:05.517Z,20.24
2022-08-22T09:46:12.763Z,23.06
2022-08-22T09:49:24.026Z,22.01
2022-08-22T09:52:36.931Z,20.68
2022-08-22T09:55:44.222Z,18.81
2022-08-22T09:58:55.645Z,19.35
2022-08-22T10:02:06.038Z,20.18
2022-08-22T10:05:13.638Z,18.91
2022-08-22T10:08:41.400Z,23.50
2022-08-22T10:11:53.838Z,21.37
2022-08-22T10:15:06.916Z,23.40
2022-08-22T10:18:16.044Z,22.57
2022-08-22T10:21:24.198Z,20.92
2022-08-22T10:24:32.498Z,21.53
2022-08-22T10:27:52.826Z,23.52
2022-08-22T10:31:06.480Z,25.54
2022-08-22T10:34:11.533Z,23.83
2022-08-22T10:37:23.875Z,24.51
2022-08-22T10:40:30.037Z,23.09
2022-08-22T10:43:39.000Z,22.13
2022-08-22T10:46:49.546Z,22.43
2022-08-22T10:49:56.195Z,23.08
2022-08-22T10:53:16.540Z,24.23
2022-08-22T10:56:23.143Z,25.19
2022-08-22T10:59:39.249Z,25.73
2022-08-22T11:02:57.713Z,27.42
2022-08-22T11:06:02.959Z,28.62
2022-08-22T11:09:14.234Z,28.34
2022-08-22T11:12:23.467Z,27.99
2022-08-22T11:15:49.845Z,28.28
2022-08-22T11:19:15.011Z,28.67
2022-08-22T11:22:27.788Z,28.21
2022-08-22T11:25:41.237Z,28.37
2022-08-22T11:29:07.818Z,28.71
2022-08-22T11:32:19.828Z,28.50
2022-08-22T11:35:26.112Z,28.93
2022-08-22T11:38:36.256Z,28.33
2022-08-22T11:41:43.891Z,28.68
2022-08-22T11:44:53.094Z,27.90
2022-08-22T11:48:04.277Z,27.99
2022-08-22T11:51:15.293Z,28.81
2022-08-22T11:54:30.950Z,25.99
2022-08-22T11:57:36.695Z,24.03
2022-08-22T12:00:49.024Z,26.19
2022-08-22T12:04:22.653Z,25.64
2022-08-22T12:07:32.396Z,25.69
2022-08-22T12:10:37.879Z,25.62
2022-08-22T12:13:49.312Z,26.00
2022-08-22T12:17:00.798Z,24.23
2022-08-22T12:20:18.772Z,23.31
2022-08-22T12:23:43.246Z,23.55
2022-08-22T12:26:58.398Z,23.47
2022-08-22T12:30:14.088Z,23.26
2022-08-22T12:33:38.578Z,24.51
2022-08-22T12:36:55.895Z,24.15
2022-08-22T12:40:14.306Z,23.74
2022-08-22T12:43:34.112Z,22.67
2022-08-22T12:46:52.801Z,24.21
2022-08-22T12:50:04.899Z,24.45
2022-08-22T12:53:20.197Z,23.60
2022-08-22T12:56:31.846Z,23.55
2022-08-22T12:59:38.556Z,23.18
2022-08-22T13:02:44.965Z,24.18
2022-08-22T13:05:56.975Z,23.85
2022-08-22T13:09:03.712Z,24.69
2022-08-22T13:12:24.499Z,21.80
2022-08-22T13:15:28.934Z,24.83
2022-08-22T13:18:35.800Z,23.25
2022-08-22T13:21:43.915Z,21.06
2022-08-22T13:24:52.259Z,22.65
2022-08-22T13:27:59.249Z,23.27
2022-08-22T13:31:03.265Z,21.82
2022-08-22T13:34:07.261Z,23.51
2022-08-22T13:37:15.299Z,22.88
2022-08-22T13:40:24.413Z,23.19
2022-08-22T13:43:31.192Z,22.95
2022-08-22T13:46:35.478Z,22.72
2022-08-22T13:49:40.768Z,21.00
2022-08-22T13:52:55.065Z,21.81
2022-08-22T13:56:02.638Z,22.78
2022-08-22T13:59:25.304Z,23.81
2022-08-22T14:02:55.250Z,22.93
2022-08-22T14:06:32.669Z,22.83
2022-08-22T14:09:36.216Z,23.11
2022-08-22T14:12:50.299Z,24.54
2022-08-22T14:16:00.845Z,22.69
2022-08-22T14:19:06.242Z,23.21
2022-08-22T14:22:14.554Z,21.40
2022-08-22T14:25:21.425Z,24.02
2022-08-22T14:28:27.518Z,22.21
2022-08-22T14:31:32.287Z,22.69
2022-08-22T14:34:40.814Z,22.70
2022-08-22T14:37:52.223Z,22.39
2022-08-22T14:41:00.278Z,23.64
2022-08-22T14:44:05.091Z,23.88
2022-08-22T14:47:34.449Z,24.67
2022-08-22T14:50:40.691Z,24.29
2022-08-22T14:53:48.444Z,24.07
2022-08-22T14:56:53.102Z,25.64
2022-08-22T14:59:56.054Z,25.87
2022-08-22T15:03:17.296Z,24.94
2022-08-22T15:06:31.676Z,24.43
2022-08-22T15:09:40.464Z,26.33
2022-08-22T15:12:48.696Z,25.80
2022-08-22T15:15:55.818Z,25.95
2022-08-22T15:19:20.332Z,25.62
2022-08-22T15:22:25.703Z,25.23
2022-08-22T15:25:32.677Z,25.95
2022-08-22T15:28:52.576Z,26.84
2022-08-22T15:31:57.795Z,26.00
2022-08-22T15:35:06.337Z,25.99
2022-08-22T15:38:24.233Z,26.36
2022-08-22T15:41:40.211Z,26.73
2022-08-22T15:44:48.082Z,26.29
2022-08-22T15:47:52.336Z,24.91
2022-08-22T15:50:59.534Z,25.66
2022-08-22T15:54:24.471Z,26.70
2022-08-22T15:57:31.686Z,26.11
2022-08-22T16:00:43.345Z,25.71
2022-08-22T16:03:54.399Z,25.52
2022-08-22T16:07:01.302Z,26.54
2022-08-22T16:10:07.536Z,28.22
2022-08-22T16:13:13.456Z,27.05
2022-08-22T16:16:31.143Z,28.77
2022-08-22T16:19:34.727Z,28.75
2022-08-22T16:26:12.520Z,28.28
2022-08-22T16:29:29.947Z,28.91
2022-08-22T16:32:38.200Z,27.18
2022-08-22T16:35:59.694Z,28.09
2022-08-22T16:39:02.664Z,27.97
2022-08-22T16:42:28.496Z,27.99
2022-08-22T16:45:32.844Z,28.28
2022-08-22T16:48:39.780Z,28.41
2022-08-22T16:51:57.534Z,28.90
2022-08-22T16:55:01.220Z,28.76
2022-08-22T16:58:07.904Z,27.96
2022-08-22T17:01:15.339Z,28.73
2022-08-22T17:04:23.372Z,28.92
2022-08-22T17:07:34.161Z,29.83
2022-08-22T17:10:58.198Z,28.79
2022-08-22T17:14:10.928Z,29.39
2022-08-22T17:17:19.008Z,29.38
2022-08-22T17:20:28.789Z,30.80
2022-08-22T17:23:38.396Z,29.80
2022-08-22T17:26:48.804Z,30.91
2022-08-22T17:30:00.301Z,30.86
2022-08-22T17:33:12.334Z,30.39
2022-08-22T17:36:29.748Z,30.50
2022-08-22T17:39:42.728Z,29.77
2022-08-22T17:42:54.568Z,31.25
2022-08-22T17:46:12.883Z,30.00
2022-08-22T17:49:24.373Z,30.91
2022-08-22T17:52:31.340Z,30.79
2022-08-22T17:55:38.828Z,31.75
2022-08-22T17:58:48.506Z,31.38
2022-08-22T18:01:55.600Z,31.19
2022-08-22T18:05:12.943Z,31.07
2022-08-22T18:11:52.623Z,31.40
2022-08-22T18:15:08.111Z,30.85
2022-08-22T18:18:20.144Z,32.08
2022-08-22T18:21:27.195Z,31.41
2022-08-22T18:24:33.684Z,31.58
2022-08-22T18:27:40.103Z,31.17
2022-08-22T18:30:52.354Z,32.18
2022-08-22T18:34:09.303Z,31.96
2022-08-22T18:37:18.587Z,31.76
2022-08-22T18:40:33.124Z,31.89
2022-08-22T18:43:38.010Z,31.98
2022-08-22T18:46:43.446Z,31.27
2022-08-22T18:49:55.339Z,31.01
2022-08-22T18:52:59.876Z,31.78
2022-08-22T18:56:07.935Z,31.61
2022-08-22T18:59:19.406Z,31.64
2022-08-22T19:02:37.731Z,32.56
2022-08-22T19:05:50.224Z,32.23
2022-08-22T19:09:07.569Z,32.56
2022-08-22T19:12:27.962Z,32.19
2022-08-22T19:15:37.272Z,33.07
2022-08-22T19:18:49.267Z,32.39
2022-08-22T19:22:21.595Z,32.06
2022-08-22T19:25:30.853Z,32.42
2022-08-22T19:28:37.426Z,31.71
2022-08-22T19:31:46.537Z,32.77
2022-08-22T19:35:12.304Z,33.22
2022-08-22T19:38:36.077Z,33.47
2022-08-22T19:41:42.814Z,32.18
2022-08-22T19:44:53.739Z,32.41
2022-08-22T19:48:04.690Z,32.31
2022-08-22T19:51:12.833Z,32.25
2022-08-22T19:54:19.021Z,32.48
2022-08-22T19:57:28.120Z,32.90
2022-08-22T20:00:43.311Z,33.07
2022-08-22T20:03:55.700Z,33.05
2022-08-22T20:07:03.691Z,33.43
2022-08-22T20:10:23.952Z,33.05
2022-08-22T20:13:29.318Z,32.77
2022-08-22T20:16:48.180Z,33.03
2022-08-22T20:23:18.399Z,34.27
2022-08-22T20:26:22.076Z,33.19
2022-08-22T20:29:31.147Z,33.03
2022-08-22T20:32:39.438Z,33.18
2022-08-22T20:35:45.338Z,32.90
2022-08-22T20:38:56.062Z,33.85
2022-08-22T20:42:03.315Z,33.59
2022-08-22T20:45:12.356Z,33.57
2022-08-22T20:48:15.362Z,33.28
2022-08-22T20:51:22.398Z,33.04
2022-08-22T20:54:25.916Z,34.21
2022-08-22T20:57:29.251Z,33.61
2022-08-22T21:00:37.952Z,33.79
2022-08-22T21:03:42.220Z,32.95
2022-08-22T21:06:46.102Z,33.06
2022-08-22T21:10:11.950Z,34.13
2022-08-22T21:13:21.003Z,32.95
2022-08-22T21:16:31.382Z,32.76
2022-08-22T21:19:34.636Z,34.70
2022-08-22T21:22:37.475Z,33.82
2022-08-22T21:25:56.682Z,33.24
2022-08-22T21:29:01.999Z,33.92
2022-08-22T21:32:12.499Z,34.74
2022-08-22T21:35:23.534Z,33.86
2022-08-22T21:38:26.895Z,33.29
2022-08-22T21:41:33.074Z,34.29
2022-08-22T21:44:37.710Z,35.50
2022-08-22T21:47:42.990Z,35.27
2022-08-22T21:50:45.766Z,35.24
2022-08-22T21:53:48.752Z,35.05
2022-08-22T21:57:15.519Z,35.53
2022-08-22T22:00:33.207Z,34.03
2022-08-22T22:03:40.494Z,33.53
2022-08-22T22:06:43.343Z,34.31
2022-08-22T22:09:47.187Z,34.64
2022-08-22T22:12:58.733Z,35.17
2022-08-22T22:16:01.593Z,35.74
2022-08-22T22:19:07.876Z,34.35
2022-08-22T22:22:10.680Z,33.58
2022-08-22T22:25:40.187Z,35.08
2022-08-22T22:28:39.076Z,34.82
2022-08-22T22:31:41.890Z,33.56
2022-08-22T22:34:46.084Z,33.28
2022-08-22T22:37:48.898Z,34.17
2022-08-22T22:40:51.681Z,34.02
2022-08-22T22:43:55.808Z,33.72
2022-08-22T22:46:58.641Z,34.01
2022-08-22T22:50:02.815Z,34.47
2022-08-22T22:53:05.822Z,35.95
2022-08-22T22:56:13.566Z,34.86
2022-08-22T22:59:16.685Z,34.47
2022-08-22T23:02:21.143Z,35.20
2022-08-22T23:05:25.367Z,36.39
2022-08-22T23:08:28.185Z,35.63
2022-08-22T23:11:31.754Z,37.15
2022-08-22T23:14:34.718Z,36.91
2022-08-22T23:17:37.775Z,36.68
2022-08-22T23:20:41.940Z,35.70
2022-08-22T23:23:44.737Z,37.53
2022-08-22T23:26:47.572Z,36.26
2022-08-22T23:29:50.483Z,36.75
2022-08-22T23:32:53.575Z,37.44
2022-08-22T23:35:59.975Z,35.66
2022-08-22T23:39:03.192Z,38.56
2022-08-22T23:42:07.106Z,36.11
2022-08-22T23:45:10.205Z,38.36
2022-08-22T23:48:13.048Z,36.58
2022-08-22T23:51:18.239Z,36.20
2022-08-22T23:54:26.644Z,38.64
2022-08-22T23:57:29.834Z,38.03
